Time;durP1;ratioP1;P1;durP2;ratioP2;P2;SDS_P1;SDS_P2;PMS_P1;PMS_P2;Temp;Humidity;BMP_temperature;BMP_pressure;BME280_temperature;BME280_humidity;BME280_pressure;Samples;Min_cycle;Max_cycle;Signal;HPM_P1;HPM_P2
2021/08/10 00:01:05;;;;;;;21.35;11.38;;;;;;;24.56;71.83;99043.69;5083192;28;20052;-90
2021/08/10 00:03:32;;;;;;;24.45;11.23;;;;;;;24.59;71.31;99056.16;5088333;28;20089;-91
2021/08/10 00:05:58;;;;;;;22.23;12.63;;;;;;;24.56;71.25;99057.28;5085292;28;20115;-91
2021/08/10 00:08:24;;;;;;;22.67;11.98;;;;;;;24.59;71.26;99077.91;5083315;28;20136;-89
2021/08/10 00:10:51;;;;;;;22.05;11.55;;;;;;;24.57;71.55;99088.06;5078791;28;20059;-90
2021/08/10 00:13:20;;;;;;;25.17;11.70;;;;;;;24.48;71.89;99089.66;5079837;28;20032;-89
2021/08/10 00:15:46;;;;;;;22.98;11.85;;;;;;;24.31;71.55;99062.91;5082827;28;20040;-91
2021/08/10 00:18:12;;;;;;;20.60;11.63;;;;;;;24.20;72.28;99050.19;5082207;28;20064;-90
2021/08/10 00:20:40;;;;;;;28.02;12.75;;;;;;;24.25;72.37;99058.00;5083905;28;20036;-90
2021/08/10 00:23:06;;;;;;;23.88;11.07;;;;;;;24.23;72.65;99068.97;5079832;28;20040;-90
2021/08/10 00:25:33;;;;;;;24.23;12.43;;;;;;;24.07;72.98;99082.00;5085837;28;20824;-92
2021/08/10 00:27:59;;;;;;;20.30;11.38;;;;;;;23.98;73.28;99080.88;5083590;28;20033;-91
2021/08/10 00:30:26;;;;;;;21.63;11.23;;;;;;;23.91;72.77;99061.47;5079109;28;20055;-91
2021/08/10 00:32:52;;;;;;;16.50;12.23;;;;;;;23.97;72.56;99054.72;5081772;28;20047;-92
2021/08/10 00:35:18;;;;;;;22.38;10.88;;;;;;;23.85;71.56;99036.66;5086720;28;20394;-91
2021/08/10 00:37:45;;;;;;;19.35;10.48;;;;;;;23.92;70.63;99065.06;5085200;28;20485;-91
2021/08/10 00:40:13;;;;;;;21.52;10.38;;;;;;;23.97;69.99;99071.88;5083582;28;20044;-91
2021/08/10 00:42:39;;;;;;;21.88;11.85;;;;;;;23.98;70.59;99080.88;5081595;28;20536;-90
2021/08/10 00:45:06;;;;;;;19.02;11.07;;;;;;;24.00;70.76;99092.50;5085294;28;20033;-91
2021/08/10 00:47:31;;;;;;;20.20;10.75;;;;;;;23.89;69.51;99052.59;5083402;28;20554;-92
2021/08/10 00:49:57;;;;;;;19.98;9.73;;;;;;;24.11;67.01;99064.50;5085655;28;20119;-90
2021/08/10 00:52:23;;;;;;;18.02;9.80;;;;;;;24.06;66.26;99048.56;5086243;28;20126;-91
2021/08/10 00:54:51;;;;;;;15.02;8.63;;;;;;;24.16;65.81;99075.88;5089300;28;20390;-91
2021/08/10 00:57:16;;;;;;;15.68;8.23;;;;;;;24.06;65.31;99073.00;5085683;28;20062;-91
2021/08/10 00:59:42;;;;;;;20.75;8.55;;;;;;;24.00;64.27;99051.75;5086394;28;20064;-91
2021/08/10 01:02:09;;;;;;;17.98;8.80;;;;;;;24.19;63.90;99086.50;5082508;28;20044;-90
2021/08/10 01:04:36;;;;;;;14.45;8.52;;;;;;;24.36;62.89;99079.75;5088757;28;20508;-93
2021/08/10 01:07:09;;;;;;;16.75;8.40;;;;;;;24.31;62.86;99052.03;5082404;28;20029;-91
2021/08/10 01:09:45;;;;;;;14.48;8.25;;;;;;;24.16;63.18;99057.72;5089924;28;20081;-89
2021/08/10 01:12:16;;;;;;;17.83;8.27;;;;;;;24.23;63.45;99100.72;5087799;28;20048;-89
2021/08/10 01:14:48;;;;;;;21.50;8.75;;;;;;;24.15;63.74;99085.00;5085893;28;20040;-90
2021/08/10 01:17:21;;;;;;;16.25;8.80;;;;;;;24.07;65.82;99069.31;5082729;28;20040;-91
2021/08/10 01:20:13;;;;;;;14.90;8.98;;;;;;;24.17;65.13;99085.75;5085347;28;20155;-91
2021/08/10 01:22:44;;;;;;;16.70;8.60;;;;;;;24.22;65.03;99088.97;5085846;28;20497;-90
2021/08/10 01:25:21;;;;;;;16.88;8.20;;;;;;;24.14;64.93;99056.97;5082831;28;20036;-90
2021/08/10 01:27:57;;;;;;;18.20;8.90;;;;;;;24.14;65.21;99072.41;5081664;28;20040;-91
2021/08/10 01:30:31;;;;;;;17.02;9.73;;;;;;;24.05;66.36;99062.25;5082815;28;20052;-90
2021/08/10 01:33:04;;;;;;;19.08;9.75;;;;;;;23.95;67.60;99062.97;5081015;28;20063;-91
2021/08/10 01:35:33;;;;;;;20.13;10.55;;;;;;;23.70;69.22;99076.66;5082595;28;20044;-90
2021/08/10 01:38:02;;;;;;;19.83;10.63;;;;;;;23.60;69.71;99090.09;5084911;28;20035;-91
2021/08/10 01:40:29;;;;;;;23.95;10.93;;;;;;;23.44;69.32;99063.22;5084293;28;20375;-91
2021/08/10 01:42:59;;;;;;;15.68;10.02;;;;;;;23.50;69.55;99089.06;5083223;28;20040;-91
2021/08/10 01:45:26;;;;;;;17.30;9.35;;;;;;;23.54;69.21;99085.97;5077696;28;20842;-91
2021/08/10 01:47:53;;;;;;;15.13;9.82;;;;;;;23.57;68.94;99077.63;5079207;28;20035;-92
2021/08/10 01:50:23;;;;;;;21.52;9.73;;;;;;;23.52;68.90;99068.94;5083361;28;20190;-91
2021/08/10 01:52:49;;;;;;;19.25;10.25;;;;;;;23.25;69.81;99065.59;5084004;28;20040;-90
2021/08/10 01:55:18;;;;;;;19.75;10.73;;;;;;;23.14;70.29;99088.13;5084168;28;20036;-92
2021/08/10 01:57:45;;;;;;;18.98;10.48;;;;;;;22.86;71.68;99078.41;5084088;28;20448;-90
2021/08/10 02:00:11;;;;;;;15.40;10.38;;;;;;;22.91;71.58;99096.03;5083931;28;20090;-91
2021/08/10 02:02:38;;;;;;;17.73;10.73;;;;;;;22.94;71.09;99082.28;5081025;28;20040;-91
2021/08/10 02:05:07;;;;;;;16.13;9.25;;;;;;;23.00;70.96;99069.22;5085787;28;20391;-91
2021/08/10 02:07:35;;;;;;;20.40;10.10;;;;;;;23.08;71.15;99073.16;5082813;28;20509;-91
2021/08/10 02:10:01;;;;;;;19.25;10.45;;;;;;;22.90;71.72;99071.75;5089427;28;20036;-91
2021/08/10 02:12:27;;;;;;;20.33;10.05;;;;;;;22.97;71.90;99076.63;5089118;28;20119;-90
2021/08/10 02:14:54;;;;;;;17.55;10.30;;;;;;;22.96;72.10;99064.03;5091373;28;20128;-91
2021/08/10 02:17:20;;;;;;;19.35;10.13;;;;;;;22.94;72.07;99051.56;5089056;28;20129;-91
2021/08/10 02:19:46;;;;;;;20.02;11.15;;;;;;;23.04;72.63;99055.38;5090021;28;20040;-90
2021/08/10 02:22:14;;;;;;;23.80;11.18;;;;;;;23.10;73.20;99056.78;5088267;28;20040;-91
2021/08/10 02:24:46;;;;;;;22.10;11.68;;;;;;;22.98;73.87;99055.78;5088094;28;20044;-90
2021/08/10 02:27:21;;;;;;;20.52;10.40;;;;;;;22.97;73.62;99056.78;5089619;28;20028;-91
2021/08/10 02:29:50;;;;;;;19.92;11.68;;;;;;;22.85;74.49;99044.97;5086580;28;20031;-91
2021/08/10 02:32:20;;;;;;;18.17;11.00;;;;;;;22.82;75.09;99056.03;5088034;28;20062;-92
2021/08/10 02:34:47;;;;;;;17.15;10.60;;;;;;;22.92;73.59;99056.22;5086716;28;20040;-90
2021/08/10 02:37:15;;;;;;;18.90;10.77;;;;;;;23.07;71.59;99071.41;5084563;28;20571;-91
2021/08/10 02:39:44;;;;;;;19.25;10.43;;;;;;;23.10;71.50;99065.75;5082742;28;20074;-91
2021/08/10 02:42:11;;;;;;;21.52;9.80;;;;;;;23.15;71.11;99074.41;5089392;28;20040;-91
2021/08/10 02:44:40;;;;;;;20.98;10.57;;;;;;;23.09;70.82;99057.72;5084707;28;20485;-91
2021/08/10 02:47:07;;;;;;;22.00;10.40;;;;;;;23.06;71.42;99058.81;5083225;28;20132;-91
2021/08/10 02:49:33;;;;;;;19.15;10.55;;;;;;;23.00;70.98;99043.00;5086428;28;20032;-91
2021/08/10 02:51:58;;;;;;;16.13;9.80;;;;;;;22.98;70.84;99029.50;5084185;28;20123;-90
2021/08/10 02:54:24;;;;;;;16.33;10.18;;;;;;;23.03;71.42;99061.78;5086324;28;20066;-90
2021/08/10 02:56:56;;;;;;;22.38;10.55;;;;;;;22.97;71.64;99073.91;5081069;28;20041;-91
2021/08/10 02:59:27;;;;;;;16.52;9.50;;;;;;;22.86;71.55;99076.53;5085694;28;20113;-90
2021/08/10 03:01:58;;;;;;;16.88;9.43;;;;;;;22.89;71.01;99070.03;5079893;28;20060;-91
2021/08/10 03:04:25;;;;;;;15.73;8.95;;;;;;;22.91;70.89;99068.06;5089580;28;20102;-91
2021/08/10 03:06:54;;;;;;;18.52;9.40;;;;;;;22.99;70.96;99065.66;5086276;28;20386;-90
2021/08/10 03:09:20;;;;;;;17.95;9.98;;;;;;;22.93;70.71;99061.53;5088474;28;20054;-91
2021/08/10 03:11:48;;;;;;;20.75;9.98;;;;;;;22.95;71.53;99067.72;5089597;28;20043;-90
2021/08/10 03:14:15;;;;;;;18.25;10.40;;;;;;;22.95;71.59;99065.00;5088383;28;20048;-91
2021/08/10 03:16:44;;;;;;;22.23;10.15;;;;;;;22.94;70.99;99070.53;5084718;28;20051;-91
2021/08/10 03:19:12;;;;;;;15.43;9.63;;;;;;;22.92;71.34;99072.50;5083914;28;20044;-91
2021/08/10 03:21:41;;;;;;;23.10;9.50;;;;;;;22.77;71.40;99056.38;5087879;28;20044;-93
2021/08/10 03:24:09;;;;;;;13.93;10.00;;;;;;;22.89;72.17;99075.44;5086826;28;20062;-91
2021/08/10 03:26:36;;;;;;;17.35;10.73;;;;;;;22.89;72.48;99070.88;5083859;28;20599;-90
2021/08/10 03:29:02;;;;;;;27.55;11.57;;;;;;;22.90;72.57;99067.22;5082386;28;20041;-90
2021/08/10 03:31:31;;;;;;;25.63;11.43;;;;;;;23.00;72.26;99082.78;5084042;28;20051;-91
2021/08/10 03:33:58;;;;;;;20.77;10.15;;;;;;;22.96;71.42;99074.00;5085211;28;20048;-90
2021/08/10 03:36:25;;;;;;;17.55;9.52;;;;;;;23.08;71.24;99070.44;5088538;28;20044;-90
2021/08/10 03:38:55;;;;;;;16.92;9.93;;;;;;;23.00;71.04;99047.53;5087272;28;20110;-90
2021/08/10 03:41:22;;;;;;;19.67;10.45;;;;;;;23.00;71.27;99061.09;5084046;28;20036;-91
2021/08/10 03:43:48;;;;;;;18.73;10.17;;;;;;;23.00;71.37;99077.38;5087220;28;20568;-90
2021/08/10 03:46:14;;;;;;;18.45;10.40;;;;;;;22.97;72.00;99078.47;5083792;28;20084;-90
2021/08/10 03:48:44;;;;;;;17.35;9.82;;;;;;;23.05;71.89;99072.50;5089276;28;20539;-89
2021/08/10 03:51:12;;;;;;;15.82;9.70;;;;;;;23.07;71.46;99065.13;5086778;28;20094;-90
2021/08/10 03:53:39;;;;;;;17.70;9.45;;;;;;;23.07;71.31;99046.97;5084986;28;20079;-91
2021/08/10 03:56:05;;;;;;;21.92;11.32;;;;;;;22.97;71.47;99051.34;5087876;28;20044;-90
2021/08/10 03:58:34;;;;;;;20.10;10.25;;;;;;;22.89;72.35;99059.16;5086340;28;20446;-89
2021/08/10 04:01:01;;;;;;;21.25;11.30;;;;;;;22.72;72.81;99049.56;5084477;28;20047;-92
2021/08/10 04:03:31;;;;;;;21.33;10.85;;;;;;;22.69;73.00;99039.81;5088595;28;20512;-90
2021/08/10 04:06:00;;;;;;;20.42;10.13;;;;;;;22.79;72.56;99052.69;5086380;28;20059;-90
2021/08/10 04:08:27;;;;;;;17.23;9.75;;;;;;;22.73;72.62;99052.16;5087297;28;20051;-89
2021/08/10 04:10:53;;;;;;;24.55;10.25;;;;;;;22.61;72.18;99057.59;5084360;28;20075;-90
2021/08/10 04:13:20;;;;;;;21.25;10.50;;;;;;;22.61;73.68;99072.00;5085130;28;20036;-90
2021/08/10 04:15:48;;;;;;;18.17;11.23;;;;;;;22.62;73.94;99070.16;5085451;28;20074;-90
2021/08/10 04:18:17;;;;;;;18.35;10.75;;;;;;;22.70;73.80;99073.19;5085783;28;20047;-89
2021/08/10 04:20:46;;;;;;;19.08;10.18;;;;;;;22.76;72.90;99068.19;5091665;28;20036;-89
2021/08/10 04:23:13;;;;;;;18.00;10.50;;;;;;;22.69;73.30;99072.34;5088419;28;20040;-91
2021/08/10 04:25:39;;;;;;;19.90;10.60;;;;;;;22.61;73.97;99060.31;5087038;28;20040;-91
2021/08/10 04:28:05;;;;;;;16.48;10.30;;;;;;;22.68;73.73;99051.59;5084441;28;20128;-90
2021/08/10 04:30:31;;;;;;;18.73;10.15;;;;;;;22.82;73.04;99063.31;5081388;28;20053;-89
2021/08/10 04:32:59;;;;;;;19.27;10.38;;;;;;;22.88;72.85;99055.59;5089434;28;20037;-89
2021/08/10 04:35:25;;;;;;;16.30;10.57;;;;;;;22.88;71.97;99052.88;5083614;28;20037;-90
2021/08/10 04:38:01;;;;;;;16.10;10.57;;;;;;;22.91;70.92;99068.06;5086546;28;20334;-90
2021/08/10 04:40:29;;;;;;;17.48;9.90;;;;;;;22.97;70.75;99082.03;5085747;28;20078;-90
2021/08/10 04:42:58;;;;;;;21.57;11.37;;;;;;;23.00;71.32;99078.25;5084881;28;20045;-90
2021/08/10 04:45:29;;;;;;;22.42;9.75;;;;;;;23.05;71.18;99083.34;5084863;28;20549;-90
2021/08/10 04:47:55;;;;;;;14.93;9.65;;;;;;;23.08;70.56;99081.28;5084168;28;20043;-89
2021/08/10 04:50:25;;;;;;;16.63;10.35;;;;;;;23.16;69.61;99070.75;5085579;28;20052;-89
2021/08/10 04:52:59;;;;;;;19.55;10.43;;;;;;;23.09;70.00;99069.44;5087715;28;20044;-91
2021/08/10 04:55:25;;;;;;;21.95;10.45;;;;;;;23.01;69.86;99065.56;5087056;28;20938;-91
2021/08/10 04:57:55;;;;;;;20.35;10.20;;;;;;;23.05;69.98;99061.66;5083142;28;20040;-90
2021/08/10 05:00:20;;;;;;;19.92;10.07;;;;;;;23.12;70.10;99058.38;5081887;28;20040;-91
2021/08/10 05:02:51;;;;;;;18.70;10.35;;;;;;;23.26;69.79;99076.34;5085297;28;20438;-91
2021/08/10 05:05:23;;;;;;;20.30;10.55;;;;;;;23.34;69.62;99089.34;5085057;28;20110;-90
2021/08/10 05:07:49;;;;;;;20.95;10.82;;;;;;;23.49;69.85;99096.34;5083440;28;20123;-91
2021/08/10 05:10:14;;;;;;;19.40;12.25;;;;;;;23.53;69.94;99097.84;5084720;28;20516;-91
2021/08/10 05:12:40;;;;;;;23.92;11.10;;;;;;;23.71;69.55;99106.44;5087404;28;20061;-89
2021/08/10 05:15:09;;;;;;;18.48;12.27;;;;;;;23.84;68.98;99105.53;5080410;28;20502;-90
2021/08/10 05:17:35;;;;;;;20.50;12.40;;;;;;;23.95;68.60;99102.84;5083386;28;20036;-90
2021/08/10 05:20:00;;;;;;;18.80;11.45;;;;;;;24.05;68.26;99090.31;5084024;28;20034;-90
2021/08/10 05:22:26;;;;;;;22.33;11.73;;;;;;;24.16;67.75;99086.75;5085849;28;20048;-90
2021/08/10 05:24:52;;;;;;;24.67;11.50;;;;;;;24.22;67.22;99078.09;5083087;28;20815;-90
2021/08/10 05:27:18;;;;;;;17.80;10.38;;;;;;;24.34;65.90;99079.84;5081842;28;20048;-91
2021/08/10 05:29:44;;;;;;;20.48;10.40;;;;;;;24.37;66.32;99085.03;5085839;28;20088;-91
2021/08/10 05:32:11;;;;;;;20.65;10.52;;;;;;;24.45;66.16;99084.44;5085320;28;20489;-91
2021/08/10 05:34:38;;;;;;;16.80;10.82;;;;;;;24.42;66.10;99064.78;5084797;28;20040;-91
2021/08/10 05:40:15;;;;;;;14.05;9.85;;;;;;;24.63;65.59;99086.72;5133368;27;20370;-92
2021/08/10 05:42:41;;;;;;;20.17;9.50;;;;;;;24.64;67.46;99086.59;5133066;28;20043;-92
2021/08/10 05:45:08;;;;;;;19.73;10.68;;;;;;;24.62;67.80;99074.97;5131850;27;20507;-91
2021/08/10 05:47:34;;;;;;;17.75;9.48;;;;;;;24.51;67.35;99085.84;5130776;27;20035;-90
2021/08/10 05:49:59;;;;;;;16.58;9.57;;;;;;;24.35;65.88;99084.31;5131306;27;20135;-91
2021/08/10 05:52:25;;;;;;;15.20;9.48;;;;;;;23.48;66.99;99069.28;5131784;27;20035;-90
2021/08/10 05:54:51;;;;;;;21.23;10.95;;;;;;;23.45;66.98;99064.13;5133000;27;20054;-91
2021/08/10 05:57:18;;;;;;;19.65;9.00;;;;;;;23.46;66.95;99049.53;5134992;27;20038;-90
2021/08/10 05:59:44;;;;;;;17.63;9.45;;;;;;;23.54;66.42;99053.41;5132748;27;20042;-91
2021/08/10 06:02:10;;;;;;;18.63;8.90;;;;;;;23.60;66.72;99056.66;5128311;27;20466;-90
2021/08/10 06:04:36;;;;;;;21.13;10.27;;;;;;;23.63;66.68;99060.00;5132607;27;20492;-90
2021/08/10 06:07:04;;;;;;;19.48;9.70;;;;;;;23.88;66.01;99039.13;5132761;27;20059;-91
2021/08/10 06:09:30;;;;;;;15.27;9.00;;;;;;;24.17;64.94;99026.84;5135557;27;20043;-90
2021/08/10 06:11:55;;;;;;;19.23;9.75;;;;;;;24.48;64.38;99032.56;5130581;27;20039;-91
2021/08/10 06:14:23;;;;;;;20.70;9.15;;;;;;;24.50;64.48;99033.31;5130596;27;20053;-91
2021/08/10 06:16:48;;;;;;;14.57;8.93;;;;;;;24.72;63.72;99024.31;5128819;27;20067;-90
2021/08/10 06:19:14;;;;;;;21.67;10.35;;;;;;;24.97;62.78;99022.28;5129727;27;20088;-90
2021/08/10 06:21:40;;;;;;;17.10;8.90;;;;;;;25.20;62.38;99025.84;5130178;28;20035;-90
2021/08/10 06:24:06;;;;;;;16.65;8.52;;;;;;;24.93;63.12;99005.34;5130718;27;20384;-91
2021/08/10 06:26:32;;;;;;;17.40;8.90;;;;;;;25.15;62.22;99025.31;5130180;27;20035;-90
2021/08/10 06:28:57;;;;;;;18.83;9.77;;;;;;;25.21;61.94;99003.06;5130142;27;20047;-92
2021/08/10 06:31:25;;;;;;;16.08;9.85;;;;;;;25.38;62.57;99007.97;5130211;27;20035;-93
2021/08/10 06:33:51;;;;;;;19.20;9.48;;;;;;;25.54;62.37;99004.78;5130931;27;20082;-91
2021/08/10 06:36:17;;;;;;;16.73;9.27;;;;;;;25.41;62.72;98985.91;5131682;27;20036;-91
2021/08/10 06:38:43;;;;;;;15.23;9.15;;;;;;;25.47;63.25;98998.16;5131436;27;20104;-92
2021/08/10 06:41:08;;;;;;;19.20;9.68;;;;;;;25.77;62.82;98999.25;5129966;27;20130;-91
2021/08/10 06:43:34;;;;;;;17.45;9.38;;;;;;;25.97;62.42;99001.13;5130022;27;20434;-92
2021/08/10 06:46:00;;;;;;;18.40;9.15;;;;;;;26.29;60.47;98972.91;5129685;27;20450;-92
2021/08/10 06:48:27;;;;;;;17.27;9.10;;;;;;;26.38;60.75;98980.25;5131509;28;20039;-92
2021/08/10 06:50:56;;;;;;;17.23;9.05;;;;;;;26.68;59.48;98977.69;5119830;28;20035;-92
2021/08/10 06:53:24;;;;;;;21.45;9.65;;;;;;;27.03;58.40;98988.97;5115259;28;20144;-92
2021/08/10 06:55:50;;;;;;;14.45;8.23;;;;;;;27.30;57.82;98992.91;5115146;28;20036;-92
2021/08/10 06:58:16;;;;;;;15.60;9.10;;;;;;;27.52;56.46;98978.13;5115413;28;20032;-93
2021/08/10 07:00:42;;;;;;;15.82;8.77;;;;;;;27.73;56.74;98960.69;5113755;27;20046;-91
2021/08/10 07:03:08;;;;;;;13.80;8.27;;;;;;;27.99;55.11;98955.47;5115654;28;20039;-92
2021/08/10 07:05:35;;;;;;;15.25;8.30;;;;;;;28.12;53.85;98945.06;5115492;27;20031;-92
2021/08/10 07:08:01;;;;;;;19.98;8.43;;;;;;;28.22;54.06;98958.72;5116582;28;20031;-91
2021/08/10 07:10:27;;;;;;;13.75;8.93;;;;;;;28.23;53.89;98946.78;5118382;27;20144;-91
2021/08/10 07:12:53;;;;;;;11.93;7.70;;;;;;;28.50;53.01;98956.91;5117560;28;20044;-91
2021/08/10 07:15:19;;;;;;;20.65;8.68;;;;;;;28.80;51.78;98961.22;5115408;28;20118;-92
2021/08/10 07:17:45;;;;;;;17.10;8.10;;;;;;;28.84;52.16;98946.22;5117985;28;20045;-91
2021/08/10 07:20:12;;;;;;;14.90;8.07;;;;;;;29.09;51.26;98949.25;5117775;27;20381;-93
2021/08/10 07:22:39;;;;;;;16.00;8.18;;;;;;;29.10;51.06;98950.09;5118143;28;20047;-92
2021/08/10 07:25:06;;;;;;;19.23;7.95;;;;;;;29.24;50.65;98936.72;5118107;27;20034;-91
2021/08/10 07:27:32;;;;;;;22.38;8.07;;;;;;;29.32;50.14;98935.97;5120828;27;20396;-92
2021/08/10 07:29:59;;;;;;;15.75;8.73;;;;;;;29.37;50.28;98951.91;5114768;27;20035;-92
2021/08/10 07:32:25;;;;;;;21.65;8.10;;;;;;;29.57;50.16;98958.94;5113397;28;20043;-91
2021/08/10 07:34:51;;;;;;;18.77;8.90;;;;;;;29.56;49.45;98954.50;5115184;27;20043;-92
2021/08/10 07:37:17;;;;;;;21.77;8.40;;;;;;;29.43;50.04;98945.78;5116199;28;20050;-94
2021/08/10 07:39:44;;;;;;;20.05;8.25;;;;;;;29.14;50.66;98946.88;5117063;28;20404;-95
2021/08/10 07:42:10;;;;;;;18.63;8.40;;;;;;;29.40;51.05;98952.44;5116935;28;20035;-94
2021/08/10 07:44:36;;;;;;;20.15;8.18;;;;;;;29.64;49.65;98938.09;5125264;27;20040;-95
2021/08/10 07:47:04;;;;;;;15.65;9.05;;;;;;;29.75;49.74;98937.00;5117014;27;20067;-94
2021/08/10 07:49:29;;;;;;;18.20;9.35;;;;;;;29.88;49.81;98933.84;5116724;28;20048;-94
2021/08/10 07:51:55;;;;;;;17.55;8.98;;;;;;;30.13;48.48;98934.03;5116284;28;20104;-94
2021/08/10 07:54:21;;;;;;;18.63;8.35;;;;;;;30.43;48.07;98928.03;5117069;28;20035;-94
2021/08/10 07:56:48;;;;;;;15.48;8.48;;;;;;;30.43;47.48;98908.81;5118048;28;20069;-95
2021/08/10 07:59:14;;;;;;;24.92;9.32;;;;;;;30.56;47.55;98902.00;5121522;28;20115;-95
2021/08/10 08:01:40;;;;;;;19.77;8.77;;;;;;;30.61;46.82;98913.34;5110888;28;20453;-96
2021/08/10 08:04:06;;;;;;;24.85;9.07;;;;;;;30.69;46.83;98902.41;5107676;28;20031;-94
2021/08/10 08:06:32;;;;;;;18.52;8.73;;;;;;;30.67;47.07;98912.69;5120562;28;20054;-96
2021/08/10 08:08:58;;;;;;;21.48;8.48;;;;;;;30.80;46.59;98913.06;5118167;28;20043;-94
2021/08/10 08:11:24;;;;;;;16.92;9.35;;;;;;;30.77;46.67;98888.66;5117677;28;20047;-96
2021/08/10 08:13:55;;;;;;;18.00;8.82;;;;;;;30.23;48.12;98897.22;5120338;28;20043;-96
2021/08/10 08:16:21;;;;;;;14.57;8.85;;;;;;;30.25;47.86;98906.16;5118334;28;20130;-95
2021/08/10 08:18:47;;;;;;;13.75;8.38;;;;;;;30.53;47.49;98916.06;5121360;28;20048;-94
2021/08/10 08:21:13;;;;;;;17.20;8.40;;;;;;;30.79;47.41;98929.69;5042732;27;20055;-95
2021/08/10 08:23:39;;;;;;;14.65;8.20;;;;;;;30.95;47.54;98929.78;5080808;28;20037;-95
2021/08/10 08:26:08;;;;;;;13.77;7.85;;;;;;;31.16;46.43;98910.06;5077580;28;20048;-96
2021/08/10 08:28:35;;;;;;;19.27;8.13;;;;;;;31.40;46.07;98914.72;5082222;28;20560;-96
2021/08/10 08:31:03;;;;;;;16.95;8.48;;;;;;;31.48;46.25;98909.25;5081535;28;20500;-94
2021/08/10 08:33:29;;;;;;;21.35;8.15;;;;;;;31.55;45.65;98911.31;5081202;28;20053;-94
2021/08/10 08:35:55;;;;;;;20.33;8.82;;;;;;;31.81;45.04;98924.88;5081137;28;20494;-96
2021/08/10 08:38:21;;;;;;;14.43;8.55;;;;;;;31.99;44.26;98925.56;5081501;28;20102;-94
2021/08/10 08:40:48;;;;;;;19.95;8.20;;;;;;;32.13;44.47;98922.06;5079810;28;20398;-95
2021/08/10 08:43:16;;;;;;;17.05;7.45;;;;;;;32.11;44.12;98910.38;5078260;28;20109;-95
2021/08/10 08:45:45;;;;;;;15.90;7.93;;;;;;;32.02;44.02;98905.09;5078793;28;20036;-95
2021/08/10 08:48:14;;;;;;;17.92;7.80;;;;;;;32.27;43.50;98919.63;5078707;28;20039;-94
2021/08/10 08:50:41;;;;;;;20.67;8.93;;;;;;;31.72;44.18;98924.03;5078691;28;20054;-94
2021/08/10 08:53:11;;;;;;;15.32;7.97;;;;;;;31.87;44.46;98907.66;5079852;28;20425;-96
2021/08/10 08:55:37;;;;;;;16.38;8.35;;;;;;;32.08;43.93;98899.75;5080310;28;20052;-94
2021/08/10 08:58:04;;;;;;;18.45;8.45;;;;;;;31.88;43.90;98880.00;5080663;28;20131;-95
2021/08/10 09:00:29;;;;;;;19.95;8.43;;;;;;;32.25;43.80;98888.66;5077450;28;20567;-94
2021/08/10 09:02:57;;;;;;;22.90;8.57;;;;;;;32.52;42.72;98898.38;5076946;28;20037;-95
2021/08/10 09:05:25;;;;;;;;;;;;;;;32.66;42.05;98907.78;5079799;28;20064;-95
2021/08/10 09:07:55;;;;;;;19.60;8.97;;;;;;;32.60;42.17;98879.09;5081106;28;20386;-95
2021/08/10 09:13:29;;;;;;;16.65;8.10;;;;;;;32.71;41.88;98905.38;5133171;27;20123;-92
2021/08/10 09:16:02;;;;;;;20.98;8.43;;;;;;;32.50;41.79;98890.28;5117145;27;20048;-93
2021/08/10 09:18:28;;;;;;;19.67;8.10;;;;;;;32.75;41.70;98884.72;5113385;28;20070;-94
2021/08/10 09:21:06;;;;;;;18.08;8.25;;;;;;;32.90;40.92;98904.03;5125357;28;20035;-93
2021/08/10 09:23:35;;;;;;;;;;;;;;;33.09;40.28;98897.25;5133475;27;20043;-92
2021/08/10 09:26:01;;;;;;;14.82;7.68;;;;;;;32.72;40.15;98882.31;5132977;27;20373;-94
2021/08/10 09:28:33;;;;;;;17.73;7.95;;;;;;;32.87;40.53;98869.47;5133026;27;20054;-92
2021/08/10 09:31:27;;;;;;;17.60;8.45;;;;;;;32.81;40.53;98863.84;5133309;27;20051;-93
2021/08/10 09:33:55;;;;;;;16.02;8.13;;;;;;;33.02;39.30;98858.53;5133469;27;20489;-91
2021/08/10 09:36:21;;;;;;;;;;;;;;;32.86;38.83;98881.53;5122750;28;20043;-94
2021/08/10 09:38:48;;;;;;;13.18;7.40;;;;;;;32.51;38.93;98867.25;5134750;27;20361;-95
2021/08/10 09:41:14;;;;;;;24.77;8.00;;;;;;;32.56;37.55;98871.41;5133514;27;20039;-92
2021/08/10 09:43:42;;;;;;;14.88;7.50;;;;;;;32.23;39.19;98877.00;5123333;27;20046;-91
2021/08/10 09:46:11;;;;;;;19.58;7.47;;;;;;;32.32;37.96;98852.03;5138176;28;20074;-92
2021/08/10 09:48:38;;;;;;;17.10;7.90;;;;;;;32.32;37.86;98848.41;5138766;27;20397;-91
2021/08/10 09:51:07;;;;;;;17.73;8.17;;;;;;;32.66;38.54;98874.75;5136935;27;20073;-93
2021/08/10 09:53:33;;;;;;;;;;;;;;;32.73;37.56;98881.28;5128291;27;20046;-92
2021/08/10 09:55:59;;;;;;;17.50;7.50;;;;;;;32.80;38.14;98865.72;5122884;27;19919;-93
2021/08/10 09:58:53;;;;;;;15.50;7.22;;;;;;;32.77;38.78;98838.56;5129447;27;20051;-93
2021/08/10 10:01:31;;;;;;;20.08;7.88;;;;;;;32.51;38.87;98834.22;5125368;28;20043;-94
2021/08/10 10:04:08;;;;;;;19.08;7.75;;;;;;;33.14;38.28;98848.81;5130727;27;20043;-93
2021/08/10 10:06:34;;;;;;;20.23;8.15;;;;;;;32.64;38.98;98846.53;5131283;28;20135;-94
2021/08/10 10:09:01;;;;;;;14.98;7.60;;;;;;;32.82;39.03;98851.78;5124421;27;20596;-90
2021/08/10 10:11:27;;;;;;;18.00;8.07;;;;;;;33.10;39.03;98836.47;5124541;27;20082;-94
2021/08/10 10:13:54;;;;;;;17.42;8.13;;;;;;;32.99;38.76;98838.75;5120367;28;20047;-93
2021/08/10 10:16:20;;;;;;;16.80;8.13;;;;;;;33.22;39.36;98842.38;5130289;27;20071;-93
2021/08/10 10:18:52;;;;;;;18.05;9.27;;;;;;;31.97;41.54;98822.19;5122488;27;20042;-93
2021/08/10 10:24:40;;;;;;;15.73;8.40;;;;;;;32.70;40.67;98816.41;5158344;27;20575;-94
2021/08/10 10:27:13;;;;;;;15.65;7.72;;;;;;;32.88;39.26;98832.63;5145664;27;20040;-93
2021/08/10 10:29:59;;;;;;;25.20;9.70;;;;;;;32.69;40.24;98824.84;5150426;27;20121;-91
2021/08/10 10:32:45;;;;;;;20.85;9.20;;;;;;;32.24;41.43;98810.78;5146793;27;20038;-93
2021/08/10 10:35:25;;;;;;;14.77;9.13;;;;;;;32.77;41.50;98821.16;5146725;27;20048;-94
2021/08/10 10:37:53;;;;;;;17.00;8.73;;;;;;;32.57;41.48;98840.06;5149100;27;20035;-92
2021/08/10 10:40:22;;;;;;;17.33;8.63;;;;;;;32.53;42.18;98831.28;5146821;27;20114;-93
2021/08/10 10:42:56;;;;;;;17.85;8.40;;;;;;;33.10;40.21;98846.63;5146061;27;20031;-96
2021/08/10 10:45:33;;;;;;;19.42;8.18;;;;;;;33.26;38.49;98848.38;5148575;27;20043;-93
2021/08/10 10:48:41;;;;;;;15.93;8.40;;;;;;;33.28;39.03;98827.00;5138334;27;20046;-96
2021/08/10 10:51:44;;;;;;;19.67;9.10;;;;;;;33.43;38.79;98814.09;5149517;27;20747;-93
2021/08/10 10:54:43;;;;;;;24.48;8.27;;;;;;;32.90;39.34;98813.16;5150739;27;20038;-93
2021/08/10 10:57:49;;;;;;;17.50;8.57;;;;;;;33.21;40.00;98826.91;5111365;27;20046;-94
2021/08/10 11:00:35;;;;;;;;;;;;;;;;;;;;;
2021/08/10 11:03:12;;;;;;;21.95;9.30;;;;;;;33.18;39.22;98821.72;5144284;27;20043;-93
2021/08/10 11:05:38;;;;;;;23.70;8.85;;;;;;;33.51;38.30;98821.47;5146511;27;20062;-93
2021/08/10 11:08:06;;;;;;;19.17;8.77;;;;;;;33.19;39.26;98830.88;5144642;27;20038;-93
2021/08/10 11:10:43;;;;;;;15.85;8.52;;;;;;;33.06;40.00;98821.31;5141155;27;20485;-94
2021/08/10 11:13:36;;;;;;;21.55;8.13;;;;;;;33.70;38.75;98822.81;5148714;27;20035;-93
2021/08/10 11:16:02;;;;;;;19.23;8.48;;;;;;;34.09;38.71;98816.16;5143070;27;20042;-92
2021/08/10 11:18:33;;;;;;;22.95;8.95;;;;;;;34.29;38.08;98819.25;5144838;27;20142;-93
2021/08/10 11:21:24;;;;;;;15.80;7.68;;;;;;;34.52;36.26;98822.69;5140863;27;20053;-95
2021/08/10 11:23:51;;;;;;;18.17;8.48;;;;;;;34.66;35.85;98817.38;5141171;27;20039;-95
2021/08/10 11:26:38;;;;;;;19.77;8.05;;;;;;;34.06;37.23;98814.66;5146047;27;20112;-93
2021/08/10 11:29:10;;;;;;;17.90;8.67;;;;;;;33.68;38.09;98800.97;5148122;27;21410;-92
2021/08/10 11:31:43;;;;;;;18.45;8.65;;;;;;;33.34;39.63;98801.47;5142879;27;20051;-93
2021/08/10 11:34:34;;;;;;;15.13;7.82;;;;;;;33.66;39.43;98799.41;5130738;27;20436;-93
2021/08/10 11:37:33;;;;;;;16.48;9.00;;;;;;;33.80;39.01;98806.84;5124225;27;20062;-94
2021/08/10 11:40:05;;;;;;;20.00;9.07;;;;;;;33.77;38.36;98798.97;5134323;27;20032;-94
2021/08/10 11:42:31;;;;;;;16.42;8.57;;;;;;;33.70;37.82;98784.22;5135978;27;20122;-93